sensor_id;sensor_type;location;lat;lon;timestamp;P1;durP1;ratioP1;P2;durP2;ratioP2
24891;SDS011;12954;50.688;10.908;2022-08-19T00:01:55;23.95;;;20.83;;
24891;SDS011;12954;50.688;10.908;2022-08-19T00:04:26;24.15;;;21.08;;
24891;SDS011;12954;50.688;10.908;2022-08-19T00:06:56;26.25;;;21.15;;
24891;SDS011;12954;50.688;10.908;2022-08-19T00:09:26;29.88;;;19.80;;
24891;SDS011;12954;50.688;10.908;2022-08-19T00:11:56;23.33;;;19.90;;
24891;SDS011;12954;50.688;10.908;2022-08-19T00:14:28;22.80;;;20.33;;
24891;SDS011;12954;50.688;10.908;2022-08-19T00:16:58;25.73;;;20.88;;
24891;SDS011;12954;50.688;10.908;2022-08-19T00:19:27;23.88;;;21.20;;
24891;SDS011;12954;50.688;10.908;2022-08-19T00:21:56;25.15;;;21.17;;
24891;SDS011;12954;50.688;10.908;2022-08-19T00:24:25;23.83;;;20.70;;
24891;SDS011;12954;50.688;10.908;2022-08-19T00:26:55;23.67;;;20.52;;
24891;SDS011;12954;50.688;10.908;2022-08-19T00:29:46;23.70;;;20.90;;
24891;SDS011;12954;50.688;10.908;2022-08-19T00:32:18;23.20;;;20.33;;
24891;SDS011;12954;50.688;10.908;2022-08-19T00:34:46;25.80;;;20.83;;
24891;SDS011;12954;50.688;10.908;2022-08-19T00:37:15;23.42;;;20.92;;
24891;SDS011;12954;50.688;10.908;2022-08-19T00:39:44;23.05;;;20.55;;
24891;SDS011;12954;50.688;10.908;2022-08-19T00:42:14;24.05;;;21.27;;
24891;SDS011;12954;50.688;10.908;2022-08-19T00:44:43;24.20;;;20.33;;
24891;SDS011;12954;50.688;10.908;2022-08-19T00:47:13;25.70;;;20.73;;
24891;SDS011;12954;50.688;10.908;2022-08-19T00:49:45;22.83;;;19.92;;
24891;SDS011;12954;50.688;10.908;2022-08-19T00:52:19;24.13;;;21.48;;
24891;SDS011;12954;50.688;10.908;2022-08-19T00:54:50;22.88;;;20.45;;
24891;SDS011;12954;50.688;10.908;2022-08-19T00:57:22;23.35;;;19.75;;
24891;SDS011;12954;50.688;10.908;2022-08-19T00:59:54;24.60;;;20.58;;
24891;SDS011;12954;50.688;10.908;2022-08-19T01:02:30;24.23;;;20.30;;
24891;SDS011;12954;50.688;10.908;2022-08-19T01:05:00;22.02;;;19.63;;
24891;SDS011;12954;50.688;10.908;2022-08-19T01:07:32;22.25;;;19.85;;
24891;SDS011;12954;50.688;10.908;2022-08-19T01:10:04;23.95;;;19.73;;
24891;SDS011;12954;50.688;10.908;2022-08-19T01:12:35;21.40;;;18.88;;
24891;SDS011;12954;50.688;10.908;2022-08-19T01:15:05;23.33;;;20.20;;
24891;SDS011;12954;50.688;10.908;2022-08-19T01:17:38;22.00;;;18.83;;
24891;SDS011;12954;50.688;10.908;2022-08-19T01:20:09;24.73;;;21.38;;
24891;SDS011;12954;50.688;10.908;2022-08-19T01:22:43;23.73;;;21.13;;
24891;SDS011;12954;50.688;10.908;2022-08-19T01:25:13;21.73;;;19.42;;
24891;SDS011;12954;50.688;10.908;2022-08-19T01:27:46;22.48;;;20.08;;
24891;SDS011;12954;50.688;10.908;2022-08-19T01:30:20;23.60;;;19.75;;
24891;SDS011;12954;50.688;10.908;2022-08-19T01:32:50;22.58;;;20.27;;
24891;SDS011;12954;50.688;10.908;2022-08-19T01:35:20;23.60;;;20.50;;
24891;SDS011;12954;50.688;10.908;2022-08-19T01:37:52;22.60;;;20.20;;
24891;SDS011;12954;50.688;10.908;2022-08-19T01:40:24;23.47;;;19.07;;
24891;SDS011;12954;50.688;10.908;2022-08-19T01:42:54;22.55;;;19.40;;
24891;SDS011;12954;50.688;10.908;2022-08-19T01:45:24;25.02;;;20.33;;
24891;SDS011;12954;50.688;10.908;2022-08-19T01:47:54;23.02;;;20.40;;
24891;SDS011;12954;50.688;10.908;2022-08-19T01:52:58;20.67;;;18.50;;
24891;SDS011;12954;50.688;10.908;2022-08-19T01:55:34;21.83;;;18.95;;
24891;SDS011;12954;50.688;10.908;2022-08-19T02:00:38;19.60;;;17.50;;
24891;SDS011;12954;50.688;10.908;2022-08-19T02:03:07;20.27;;;18.10;;
24891;SDS011;12954;50.688;10.908;2022-08-19T02:05:38;19.75;;;17.63;;
24891;SDS011;12954;50.688;10.908;2022-08-19T02:08:09;22.50;;;18.10;;
24891;SDS011;12954;50.688;10.908;2022-08-19T02:10:39;21.95;;;18.02;;
24891;SDS011;12954;50.688;10.908;2022-08-19T02:13:09;20.40;;;18.15;;
24891;SDS011;12954;50.688;10.908;2022-08-19T02:15:38;19.48;;;17.05;;
24891;SDS011;12954;50.688;10.908;2022-08-19T02:18:07;20.60;;;17.23;;
24891;SDS011;12954;50.688;10.908;2022-08-19T02:20:37;19.85;;;17.75;;
24891;SDS011;12954;50.688;10.908;2022-08-19T02:23:09;19.73;;;16.70;;
24891;SDS011;12954;50.688;10.908;2022-08-19T02:25:41;21.13;;;17.25;;
24891;SDS011;12954;50.688;10.908;2022-08-19T02:28:11;19.85;;;16.77;;
24891;SDS011;12954;50.688;10.908;2022-08-19T02:30:44;18.80;;;16.73;;
24891;SDS011;12954;50.688;10.908;2022-08-19T02:33:14;24.95;;;17.42;;
24891;SDS011;12954;50.688;10.908;2022-08-19T02:35:43;19.92;;;16.92;;
24891;SDS011;12954;50.688;10.908;2022-08-19T02:38:14;22.63;;;16.83;;
24891;SDS011;12954;50.688;10.908;2022-08-19T02:40:54;18.73;;;16.70;;
24891;SDS011;12954;50.688;10.908;2022-08-19T02:43:25;20.00;;;17.77;;
24891;SDS011;12954;50.688;10.908;2022-08-19T02:45:59;19.80;;;17.65;;
24891;SDS011;12954;50.688;10.908;2022-08-19T02:48:27;19.33;;;17.33;;
24891;SDS011;12954;50.688;10.908;2022-08-19T02:50:56;18.40;;;16.50;;
24891;SDS011;12954;50.688;10.908;2022-08-19T02:53:27;19.35;;;17.23;;
24891;SDS011;12954;50.688;10.908;2022-08-19T02:55:56;18.13;;;15.93;;
24891;SDS011;12954;50.688;10.908;2022-08-19T02:58:25;19.33;;;16.90;;
24891;SDS011;12954;50.688;10.908;2022-08-19T03:00:55;18.30;;;16.23;;
24891;SDS011;12954;50.688;10.908;2022-08-19T03:03:25;21.15;;;16.80;;
24891;SDS011;12954;50.688;10.908;2022-08-19T03:06:04;19.20;;;15.88;;
24891;SDS011;12954;50.688;10.908;2022-08-19T03:08:36;18.25;;;16.35;;
24891;SDS011;12954;50.688;10.908;2022-08-19T03:11:05;18.75;;;16.33;;
24891;SDS011;12954;50.688;10.908;2022-08-19T03:13:35;19.65;;;16.23;;
24891;SDS011;12954;50.688;10.908;2022-08-19T03:16:04;15.98;;;14.27;;
24891;SDS011;12954;50.688;10.908;2022-08-19T03:18:33;17.75;;;15.05;;
24891;SDS011;12954;50.688;10.908;2022-08-19T03:21:01;22.13;;;15.43;;
24891;SDS011;12954;50.688;10.908;2022-08-19T03:23:31;16.27;;;14.57;;
24891;SDS011;12954;50.688;10.908;2022-08-19T03:26:02;15.63;;;13.65;;
24891;SDS011;12954;50.688;10.908;2022-08-19T03:28:42;19.75;;;13.68;;
24891;SDS011;12954;50.688;10.908;2022-08-19T03:31:20;16.92;;;14.98;;
24891;SDS011;12954;50.688;10.908;2022-08-19T03:34:10;15.82;;;14.13;;
24891;SDS011;12954;50.688;10.908;2022-08-19T03:36:39;15.88;;;14.10;;
24891;SDS011;12954;50.688;10.908;2022-08-19T03:39:09;14.85;;;12.68;;
24891;SDS011;12954;50.688;10.908;2022-08-19T03:41:40;17.40;;;13.13;;
24891;SDS011;12954;50.688;10.908;2022-08-19T03:44:14;16.77;;;14.30;;
24891;SDS011;12954;50.688;10.908;2022-08-19T03:46:45;15.65;;;14.05;;
24891;SDS011;12954;50.688;10.908;2022-08-19T03:49:14;16.42;;;12.93;;
24891;SDS011;12954;50.688;10.908;2022-08-19T03:51:45;15.23;;;13.52;;
24891;SDS011;12954;50.688;10.908;2022-08-19T03:54:15;14.73;;;12.63;;
24891;SDS011;12954;50.688;10.908;2022-08-19T03:56:48;15.00;;;13.48;;
24891;SDS011;12954;50.688;10.908;2022-08-19T03:59:18;15.85;;;14.25;;
24891;SDS011;12954;50.688;10.908;2022-08-19T04:01:53;14.80;;;12.90;;
24891;SDS011;12954;50.688;10.908;2022-08-19T04:04:23;17.02;;;13.57;;
24891;SDS011;12954;50.688;10.908;2022-08-19T04:06:55;17.95;;;13.88;;
24891;SDS011;12954;50.688;10.908;2022-08-19T04:09:24;15.60;;;13.98;;
24891;SDS011;12954;50.688;10.908;2022-08-19T04:11:55;15.35;;;13.85;;
24891;SDS011;12954;50.688;10.908;2022-08-19T04:14:26;18.80;;;15.00;;
24891;SDS011;12954;50.688;10.908;2022-08-19T04:16:56;16.13;;;14.43;;
24891;SDS011;12954;50.688;10.908;2022-08-19T04:19:26;16.98;;;15.27;;
24891;SDS011;12954;50.688;10.908;2022-08-19T04:21:57;17.90;;;15.75;;
24891;SDS011;12954;50.688;10.908;2022-08-19T04:24:26;18.10;;;14.82;;
24891;SDS011;12954;50.688;10.908;2022-08-19T04:26:56;18.92;;;14.65;;
24891;SDS011;12954;50.688;10.908;2022-08-19T04:29:26;17.27;;;15.25;;
24891;SDS011;12954;50.688;10.908;2022-08-19T04:31:56;17.27;;;15.38;;
24891;SDS011;12954;50.688;10.908;2022-08-19T04:34:34;16.58;;;14.80;;
24891;SDS011;12954;50.688;10.908;2022-08-19T04:37:23;16.73;;;15.00;;
24891;SDS011;12954;50.688;10.908;2022-08-19T04:40:00;19.85;;;15.45;;
24891;SDS011;12954;50.688;10.908;2022-08-19T04:42:47;17.30;;;14.77;;
24891;SDS011;12954;50.688;10.908;2022-08-19T04:45:16;17.05;;;14.85;;
24891;SDS011;12954;50.688;10.908;2022-08-19T04:47:48;17.27;;;14.35;;
24891;SDS011;12954;50.688;10.908;2022-08-19T04:50:39;16.48;;;14.80;;
24891;SDS011;12954;50.688;10.908;2022-08-19T04:53:09;16.95;;;14.88;;
24891;SDS011;12954;50.688;10.908;2022-08-19T04:55:39;16.85;;;15.07;;
24891;SDS011;12954;50.688;10.908;2022-08-19T04:58:10;17.67;;;15.85;;
24891;SDS011;12954;50.688;10.908;2022-08-19T05:00:39;18.17;;;16.25;;
24891;SDS011;12954;50.688;10.908;2022-08-19T05:03:08;17.25;;;15.43;;
24891;SDS011;12954;50.688;10.908;2022-08-19T05:05:38;19.63;;;16.58;;
24891;SDS011;12954;50.688;10.908;2022-08-19T05:08:10;18.50;;;16.08;;
24891;SDS011;12954;50.688;10.908;2022-08-19T05:10:40;16.67;;;14.98;;
24891;SDS011;12954;50.688;10.908;2022-08-19T05:13:10;18.20;;;16.38;;
24891;SDS011;12954;50.688;10.908;2022-08-19T05:15:39;18.27;;;16.38;;
24891;SDS011;12954;50.688;10.908;2022-08-19T05:18:08;18.70;;;16.90;;
24891;SDS011;12954;50.688;10.908;2022-08-19T05:20:56;19.13;;;17.00;;
24891;SDS011;12954;50.688;10.908;2022-08-19T05:23:42;18.80;;;16.95;;
24891;SDS011;12954;50.688;10.908;2022-08-19T05:26:11;21.45;;;17.88;;
24891;SDS011;12954;50.688;10.908;2022-08-19T05:28:41;20.55;;;18.35;;
24891;SDS011;12954;50.688;10.908;2022-08-19T05:31:10;19.35;;;17.33;;
24891;SDS011;12954;50.688;10.908;2022-08-19T05:33:39;20.40;;;18.35;;
24891;SDS011;12954;50.688;10.908;2022-08-19T05:36:08;21.95;;;18.77;;
24891;SDS011;12954;50.688;10.908;2022-08-19T05:38:37;20.67;;;18.02;;
24891;SDS011;12954;50.688;10.908;2022-08-19T05:41:06;22.33;;;19.08;;
24891;SDS011;12954;50.688;10.908;2022-08-19T05:43:36;20.65;;;18.50;;
24891;SDS011;12954;50.688;10.908;2022-08-19T05:46:06;21.17;;;18.17;;
24891;SDS011;12954;50.688;10.908;2022-08-19T05:48:36;21.65;;;19.40;;
24891;SDS011;12954;50.688;10.908;2022-08-19T05:51:06;22.55;;;19.33;;
24891;SDS011;12954;50.688;10.908;2022-08-19T05:53:35;23.67;;;19.30;;
24891;SDS011;12954;50.688;10.908;2022-08-19T05:56:04;21.95;;;19.60;;
24891;SDS011;12954;50.688;10.908;2022-08-19T05:58:34;24.35;;;20.48;;
24891;SDS011;12954;50.688;10.908;2022-08-19T06:01:03;22.52;;;20.17;;
24891;SDS011;12954;50.688;10.908;2022-08-19T06:03:38;22.02;;;19.70;;
24891;SDS011;12954;50.688;10.908;2022-08-19T06:06:07;23.67;;;20.02;;
24891;SDS011;12954;50.688;10.908;2022-08-19T06:08:37;24.13;;;20.13;;
24891;SDS011;12954;50.688;10.908;2022-08-19T06:11:15;23.48;;;21.00;;
24891;SDS011;12954;50.688;10.908;2022-08-19T06:13:46;22.23;;;19.95;;
24891;SDS011;12954;50.688;10.908;2022-08-19T06:16:25;21.98;;;19.55;;
24891;SDS011;12954;50.688;10.908;2022-08-19T06:18:56;22.63;;;20.25;;
24891;SDS011;12954;50.688;10.908;2022-08-19T06:21:27;23.07;;;20.57;;
24891;SDS011;12954;50.688;10.908;2022-08-19T06:23:58;21.63;;;19.48;;
24891;SDS011;12954;50.688;10.908;2022-08-19T06:26:26;22.50;;;19.73;;
24891;SDS011;12954;50.688;10.908;2022-08-19T06:28:55;20.90;;;17.70;;
24891;SDS011;12954;50.688;10.908;2022-08-19T06:31:24;24.85;;;18.17;;
24891;SDS011;12954;50.688;10.908;2022-08-19T06:33:55;20.08;;;17.02;;
24891;SDS011;12954;50.688;10.908;2022-08-19T06:36:25;18.50;;;15.07;;
24891;SDS011;12954;50.688;10.908;2022-08-19T06:38:57;17.45;;;14.70;;
24891;SDS011;12954;50.688;10.908;2022-08-19T06:41:27;16.35;;;14.68;;
24891;SDS011;12954;50.688;10.908;2022-08-19T06:43:57;17.23;;;14.90;;
24891;SDS011;12954;50.688;10.908;2022-08-19T06:46:25;16.15;;;13.38;;
24891;SDS011;12954;50.688;10.908;2022-08-19T06:48:55;17.00;;;13.55;;
24891;SDS011;12954;50.688;10.908;2022-08-19T06:51:24;16.33;;;13.57;;
24891;SDS011;12954;50.688;10.908;2022-08-19T06:53:57;13.90;;;12.52;;
24891;SDS011;12954;50.688;10.908;2022-08-19T06:56:26;15.13;;;13.50;;
24891;SDS011;12954;50.688;10.908;2022-08-19T06:59:00;20.23;;;14.27;;
24891;SDS011;12954;50.688;10.908;2022-08-19T07:01:30;14.50;;;12.68;;
24891;SDS011;12954;50.688;10.908;2022-08-19T07:04:03;14.77;;;12.48;;
24891;SDS011;12954;50.688;10.908;2022-08-19T07:06:32;16.17;;;13.23;;
24891;SDS011;12954;50.688;10.908;2022-08-19T07:09:10;15.98;;;13.00;;
24891;SDS011;12954;50.688;10.908;2022-08-19T07:11:44;14.10;;;12.73;;
24891;SDS011;12954;50.688;10.908;2022-08-19T07:14:15;13.32;;;11.93;;
24891;SDS011;12954;50.688;10.908;2022-08-19T07:16:46;16.45;;;11.70;;
24891;SDS011;12954;50.688;10.908;2022-08-19T07:19:18;12.45;;;11.15;;
24891;SDS011;12954;50.688;10.908;2022-08-19T07:21:48;13.50;;;11.35;;
24891;SDS011;12954;50.688;10.908;2022-08-19T07:24:19;12.75;;;10.48;;
24891;SDS011;12954;50.688;10.908;2022-08-19T07:26:50;14.80;;;10.88;;
24891;SDS011;12954;50.688;10.908;2022-08-19T07:29:20;13.38;;;10.63;;
24891;SDS011;12954;50.688;10.908;2022-08-19T07:31:53;12.50;;;10.18;;
24891;SDS011;12954;50.688;10.908;2022-08-19T07:34:28;10.43;;;9.43;;
24891;SDS011;12954;50.688;10.908;2022-08-19T07:37:01;11.10;;;9.90;;
24891;SDS011;12954;50.688;10.908;2022-08-19T07:39:31;13.18;;;10.43;;
24891;SDS011;12954;50.688;10.908;2022-08-19T07:42:03;12.18;;;9.18;;
24891;SDS011;12954;50.688;10.908;2022-08-19T07:44:34;10.32;;;9.10;;
24891;SDS011;12954;50.688;10.908;2022-08-19T07:47:08;10.27;;;8.85;;
24891;SDS011;12954;50.688;10.908;2022-08-19T07:49:58;10.38;;;8.25;;
24891;SDS011;12954;50.688;10.908;2022-08-19T07:52:27;11.50;;;8.07;;
24891;SDS011;12954;50.688;10.908;2022-08-19T07:54:55;9.55;;;7.88;;
24891;SDS011;12954;50.688;10.908;2022-08-19T07:57:27;9.82;;;7.47;;
24891;SDS011;12954;50.688;10.908;2022-08-19T07:59:56;12.90;;;7.63;;
24891;SDS011;12954;50.688;10.908;2022-08-19T08:02:24;12.07;;;8.35;;
24891;SDS011;12954;50.688;10.908;2022-08-19T08:04:53;11.63;;;8.32;;
24891;SDS011;12954;50.688;10.908;2022-08-19T08:07:55;11.88;;;8.38;;
24891;SDS011;12954;50.688;10.908;2022-08-19T08:10:41;10.43;;;8.07;;
24891;SDS011;12954;50.688;10.908;2022-08-19T08:13:18;11.48;;;8.07;;
24891;SDS011;12954;50.688;10.908;2022-08-19T08:15:47;10.40;;;8.40;;
24891;SDS011;12954;50.688;10.908;2022-08-19T08:18:20;8.27;;;6.90;;
24891;SDS011;12954;50.688;10.908;2022-08-19T08:20:54;10.38;;;7.35;;
24891;SDS011;12954;50.688;10.908;2022-08-19T08:23:26;8.93;;;7.85;;
24891;SDS011;12954;50.688;10.908;2022-08-19T08:25:57;9.63;;;7.78;;
24891;SDS011;12954;50.688;10.908;2022-08-19T08:28:27;8.43;;;7.18;;
24891;SDS011;12954;50.688;10.908;2022-08-19T08:30:56;9.57;;;8.23;;
24891;SDS011;12954;50.688;10.908;2022-08-19T08:33:27;8.88;;;7.45;;
24891;SDS011;12954;50.688;10.908;2022-08-19T08:36:00;10.60;;;7.85;;
24891;SDS011;12954;50.688;10.908;2022-08-19T08:38:31;11.25;;;8.35;;
24891;SDS011;12954;50.688;10.908;2022-08-19T08:41:08;9.27;;;8.00;;
24891;SDS011;12954;50.688;10.908;2022-08-19T08:43:46;10.20;;;8.07;;
24891;SDS011;12954;50.688;10.908;2022-08-19T08:46:20;9.10;;;7.63;;
24891;SDS011;12954;50.688;10.908;2022-08-19T08:48:59;9.20;;;8.13;;
24891;SDS011;12954;50.688;10.908;2022-08-19T08:51:37;9.98;;;8.98;;
24891;SDS011;12954;50.688;10.908;2022-08-19T08:54:14;9.38;;;8.35;;
24891;SDS011;12954;50.688;10.908;2022-08-19T08:56:47;11.50;;;7.75;;
24891;SDS011;12954;50.688;10.908;2022-08-19T08:59:21;11.43;;;8.60;;
24891;SDS011;12954;50.688;10.908;2022-08-19T09:01:52;10.18;;;8.77;;
24891;SDS011;12954;50.688;10.908;2022-08-19T09:04:21;9.80;;;8.40;;
24891;SDS011;12954;50.688;10.908;2022-08-19T09:06:51;9.55;;;8.35;;
24891;SDS011;12954;50.688;10.908;2022-08-19T09:09:27;11.10;;;9.30;;
24891;SDS011;12954;50.688;10.908;2022-08-19T09:12:01;11.50;;;8.77;;
24891;SDS011;12954;50.688;10.908;2022-08-19T09:14:39;14.82;;;9.15;;
24891;SDS011;12954;50.688;10.908;2022-08-19T09:17:18;12.00;;;8.98;;
24891;SDS011;12954;50.688;10.908;2022-08-19T09:19:55;12.13;;;8.00;;
24891;SDS011;12954;50.688;10.908;2022-08-19T09:22:27;9.63;;;7.33;;
24891;SDS011;12954;50.688;10.908;2022-08-19T09:24:57;10.13;;;7.35;;
24891;SDS011;12954;50.688;10.908;2022-08-19T09:27:26;6.10;;;5.45;;
24891;SDS011;12954;50.688;10.908;2022-08-19T09:30:09;6.45;;;5.75;;
24891;SDS011;12954;50.688;10.908;2022-08-19T09:32:41;8.50;;;5.33;;
24891;SDS011;12954;50.688;10.908;2022-08-19T09:35:12;5.72;;;4.93;;
24891;SDS011;12954;50.688;10.908;2022-08-19T09:37:42;6.15;;;4.90;;
24891;SDS011;12954;50.688;10.908;2022-08-19T09:40:12;9.93;;;4.80;;
24891;SDS011;12954;50.688;10.908;2022-08-19T09:42:42;5.60;;;4.90;;
24891;SDS011;12954;50.688;10.908;2022-08-19T09:45:18;10.27;;;5.50;;
24891;SDS011;12954;50.688;10.908;2022-08-19T09:47:49;7.07;;;4.97;;
24891;SDS011;12954;50.688;10.908;2022-08-19T09:50:21;8.18;;;4.38;;
24891;SDS011;12954;50.688;10.908;2022-08-19T09:52:51;4.75;;;4.30;;
24891;SDS011;12954;50.688;10.908;2022-08-19T09:55:25;4.97;;;4.47;;
24891;SDS011;12954;50.688;10.908;2022-08-19T09:57:58;7.03;;;4.90;;
24891;SDS011;12954;50.688;10.908;2022-08-19T10:00:28;6.32;;;5.28;;
24891;SDS011;12954;50.688;10.908;2022-08-19T10:02:57;5.93;;;5.00;;
24891;SDS011;12954;50.688;10.908;2022-08-19T10:05:26;5.03;;;4.15;;
24891;SDS011;12954;50.688;10.908;2022-08-19T10:08:14;5.43;;;4.78;;
24891;SDS011;12954;50.688;10.908;2022-08-19T10:10:47;5.97;;;4.57;;
24891;SDS011;12954;50.688;10.908;2022-08-19T10:13:18;5.35;;;4.40;;
24891;SDS011;12954;50.688;10.908;2022-08-19T10:15:52;37.58;;;21.90;;
24891;SDS011;12954;50.688;10.908;2022-08-19T10:18:24;5.55;;;4.53;;
24891;SDS011;12954;50.688;10.908;2022-08-19T10:21:01;6.75;;;4.90;;
24891;SDS011;12954;50.688;10.908;2022-08-19T10:23:34;7.60;;;4.10;;
24891;SDS011;12954;50.688;10.908;2022-08-19T10:26:05;5.32;;;4.28;;
24891;SDS011;12954;50.688;10.908;2022-08-19T10:28:35;5.07;;;4.30;;
24891;SDS011;12954;50.688;10.908;2022-08-19T10:31:09;8.93;;;4.37;;
24891;SDS011;12954;50.688;10.908;2022-08-19T10:33:39;7.32;;;4.40;;
24891;SDS011;12954;50.688;10.908;2022-08-19T10:36:21;5.63;;;4.50;;
24891;SDS011;12954;50.688;10.908;2022-08-19T10:38:52;7.63;;;4.40;;
24891;SDS011;12954;50.688;10.908;2022-08-19T10:41:26;6.68;;;4.90;;
24891;SDS011;12954;50.688;10.908;2022-08-19T10:43:57;7.07;;;4.63;;
24891;SDS011;12954;50.688;10.908;2022-08-19T10:46:29;7.35;;;4.40;;
24891;SDS011;12954;50.688;10.908;2022-08-19T10:48:59;6.88;;;5.03;;
24891;SDS011;12954;50.688;10.908;2022-08-19T10:51:29;10.25;;;7.40;;
24891;SDS011;12954;50.688;10.908;2022-08-19T10:54:15;4.10;;;3.70;;
24891;SDS011;12954;50.688;10.908;2022-08-19T10:57:00;7.88;;;5.97;;
24891;SDS011;12954;50.688;10.908;2022-08-19T10:59:29;2.72;;;2.25;;
24891;SDS011;12954;50.688;10.908;2022-08-19T11:02:02;4.20;;;2.42;;
24891;SDS011;12954;50.688;10.908;2022-08-19T11:04:32;2.55;;;2.22;;
24891;SDS011;12954;50.688;10.908;2022-08-19T11:07:01;4.03;;;2.08;;
24891;SDS011;12954;50.688;10.908;2022-08-19T11:09:31;4.13;;;1.60;;
24891;SDS011;12954;50.688;10.908;2022-08-19T11:12:08;2.38;;;1.67;;
24891;SDS011;12954;50.688;10.908;2022-08-19T11:14:39;1.88;;;1.70;;
24891;SDS011;12954;50.688;10.908;2022-08-19T11:17:07;4.18;;;1.75;;
24891;SDS011;12954;50.688;10.908;2022-08-19T11:19:37;2.42;;;1.60;;
24891;SDS011;12954;50.688;10.908;2022-08-19T11:22:07;1.70;;;1.60;;
24891;SDS011;12954;50.688;10.908;2022-08-19T11:24:41;2.42;;;1.65;;
24891;SDS011;12954;50.688;10.908;2022-08-19T11:27:12;2.97;;;1.65;;
24891;SDS011;12954;50.688;10.908;2022-08-19T11:29:40;2.53;;;1.80;;
24891;SDS011;12954;50.688;10.908;2022-08-19T11:32:09;4.03;;;1.95;;
24891;SDS011;12954;50.688;10.908;2022-08-19T11:34:39;4.40;;;1.80;;
24891;SDS011;12954;50.688;10.908;2022-08-19T11:37:08;3.00;;;1.73;;
24891;SDS011;12954;50.688;10.908;2022-08-19T11:39:37;2.85;;;1.83;;
24891;SDS011;12954;50.688;10.908;2022-08-19T11:42:07;5.63;;;1.83;;
24891;SDS011;12954;50.688;10.908;2022-08-19T11:44:50;2.92;;;1.83;;
24891;SDS011;12954;50.688;10.908;2022-08-19T11:47:19;5.95;;;2.00;;
24891;SDS011;12954;50.688;10.908;2022-08-19T11:49:48;5.85;;;1.88;;
24891;SDS011;12954;50.688;10.908;2022-08-19T11:52:17;4.97;;;1.98;;
24891;SDS011;12954;50.688;10.908;2022-08-19T11:54:46;2.72;;;1.73;;
24891;SDS011;12954;50.688;10.908;2022-08-19T11:57:15;4.68;;;1.88;;
24891;SDS011;12954;50.688;10.908;2022-08-19T11:59:47;1.63;;;1.50;;
24891;SDS011;12954;50.688;10.908;2022-08-19T12:02:18;5.25;;;1.50;;
24891;SDS011;12954;50.688;10.908;2022-08-19T12:04:48;2.33;;;1.50;;
24891;SDS011;12954;50.688;10.908;2022-08-19T12:07:17;3.35;;;1.60;;
24891;SDS011;12954;50.688;10.908;2022-08-19T12:09:45;1.70;;;1.50;;
24891;SDS011;12954;50.688;10.908;2022-08-19T12:12:14;1.98;;;1.77;;
24891;SDS011;12954;50.688;10.908;2022-08-19T12:14:43;3.33;;;1.95;;
24891;SDS011;12954;50.688;10.908;2022-08-19T12:17:13;2.67;;;1.75;;
24891;SDS011;12954;50.688;10.908;2022-08-19T12:19:43;3.58;;;1.80;;
24891;SDS011;12954;50.688;10.908;2022-08-19T12:22:11;2.05;;;1.40;;
24891;SDS011;12954;50.688;10.908;2022-08-19T12:24:40;2.15;;;1.40;;
24891;SDS011;12954;50.688;10.908;2022-08-19T12:27:09;2.75;;;1.40;;
24891;SDS011;12954;50.688;10.908;2022-08-19T12:29:38;2.95;;;2.00;;
24891;SDS011;12954;50.688;10.908;2022-08-19T12:32:07;3.25;;;2.13;;
24891;SDS011;12954;50.688;10.908;2022-08-19T12:34:37;4.32;;;1.75;;
24891;SDS011;12954;50.688;10.908;2022-08-19T12:37:08;2.75;;;1.63;;
24891;SDS011;12954;50.688;10.908;2022-08-19T12:39:38;3.92;;;1.20;;
24891;SDS011;12954;50.688;10.908;2022-08-19T12:42:08;1.77;;;1.27;;
24891;SDS011;12954;50.688;10.908;2022-08-19T12:44:39;4.45;;;1.27;;
24891;SDS011;12954;50.688;10.908;2022-08-19T12:47:11;3.08;;;1.20;;
24891;SDS011;12954;50.688;10.908;2022-08-19T12:49:41;1.27;;;1.10;;
24891;SDS011;12954;50.688;10.908;2022-08-19T12:52:23;2.20;;;1.10;;
24891;SDS011;12954;50.688;10.908;2022-08-19T12:54:54;1.08;;;0.95;;
24891;SDS011;12954;50.688;10.908;2022-08-19T12:57:24;2.67;;;1.80;;
24891;SDS011;12954;50.688;10.908;2022-08-19T12:59:58;3.10;;;1.30;;
24891;SDS011;12954;50.688;10.908;2022-08-19T13:02:30;1.65;;;1.40;;
24891;SDS011;12954;50.688;10.908;2022-08-19T13:05:05;2.15;;;1.20;;
24891;SDS011;12954;50.688;10.908;2022-08-19T13:07:39;2.80;;;1.38;;
24891;SDS011;12954;50.688;10.908;2022-08-19T13:10:11;3.97;;;1.38;;
24891;SDS011;12954;50.688;10.908;2022-08-19T13:12:42;1.48;;;1.35;;
24891;SDS011;12954;50.688;10.908;2022-08-19T13:15:11;8.98;;;3.53;;
24891;SDS011;12954;50.688;10.908;2022-08-19T13:17:40;1.95;;;1.13;;
24891;SDS011;12954;50.688;10.908;2022-08-19T13:20:10;2.15;;;1.23;;
24891;SDS011;12954;50.688;10.908;2022-08-19T13:22:40;1.35;;;0.98;;
24891;SDS011;12954;50.688;10.908;2022-08-19T13:25:09;1.90;;;1.50;;
24891;SDS011;12954;50.688;10.908;2022-08-19T13:27:39;1.88;;;1.23;;
24891;SDS011;12954;50.688;10.908;2022-08-19T13:30:09;1.50;;;1.38;;
24891;SDS011;12954;50.688;10.908;2022-08-19T13:32:56;3.13;;;1.45;;
24891;SDS011;12954;50.688;10.908;2022-08-19T13:35:43;2.47;;;1.10;;
24891;SDS011;12954;50.688;10.908;2022-08-19T13:38:15;2.17;;;1.40;;
24891;SDS011;12954;50.688;10.908;2022-08-19T13:40:47;1.70;;;1.52;;
24891;SDS011;12954;50.688;10.908;2022-08-19T13:43:18;1.60;;;1.50;;
24891;SDS011;12954;50.688;10.908;2022-08-19T13:45:50;2.38;;;1.38;;
24891;SDS011;12954;50.688;10.908;2022-08-19T13:48:22;1.90;;;1.30;;
24891;SDS011;12954;50.688;10.908;2022-08-19T13:50:53;1.80;;;1.60;;
24891;SDS011;12954;50.688;10.908;2022-08-19T13:53:23;2.97;;;2.63;;
24891;SDS011;12954;50.688;10.908;2022-08-19T13:55:52;6.93;;;4.80;;
24891;SDS011;12954;50.688;10.908;2022-08-19T13:58:21;3.35;;;2.40;;
24891;SDS011;12954;50.688;10.908;2022-08-19T14:00:50;3.15;;;2.15;;
24891;SDS011;12954;50.688;10.908;2022-08-19T14:03:19;3.08;;;1.70;;
24891;SDS011;12954;50.688;10.908;2022-08-19T14:05:47;3.17;;;1.60;;
24891;SDS011;12954;50.688;10.908;2022-08-19T14:08:16;3.35;;;1.90;;
24891;SDS011;12954;50.688;10.908;2022-08-19T14:10:47;2.03;;;1.50;;
24891;SDS011;12954;50.688;10.908;2022-08-19T14:13:16;4.53;;;1.80;;
24891;SDS011;12954;50.688;10.908;2022-08-19T14:15:48;4.75;;;1.90;;
24891;SDS011;12954;50.688;10.908;2022-08-19T14:18:17;5.55;;;1.80;;
24891;SDS011;12954;50.688;10.908;2022-08-19T14:20:46;3.17;;;1.55;;
24891;SDS011;12954;50.688;10.908;2022-08-19T14:23:15;2.88;;;1.67;;
24891;SDS011;12954;50.688;10.908;2022-08-19T14:25:44;2.28;;;1.60;;
24891;SDS011;12954;50.688;10.908;2022-08-19T14:28:14;2.38;;;1.90;;
24891;SDS011;12954;50.688;10.908;2022-08-19T14:30:44;4.30;;;2.05;;
24891;SDS011;12954;50.688;10.908;2022-08-19T14:33:12;4.68;;;1.90;;
24891;SDS011;12954;50.688;10.908;2022-08-19T14:35:41;3.63;;;1.75;;
24891;SDS011;12954;50.688;10.908;2022-08-19T14:38:14;1.60;;;1.50;;
24891;SDS011;12954;50.688;10.908;2022-08-19T14:41:05;1.85;;;1.70;;
24891;SDS011;12954;50.688;10.908;2022-08-19T14:43:36;6.10;;;4.00;;
24891;SDS011;12954;50.688;10.908;2022-08-19T14:46:06;5.32;;;2.45;;
24891;SDS011;12954;50.688;10.908;2022-08-19T14:48:36;3.90;;;2.20;;
24891;SDS011;12954;50.688;10.908;2022-08-19T14:51:07;2.00;;;1.80;;
24891;SDS011;12954;50.688;10.908;2022-08-19T14:53:36;3.10;;;1.63;;